Terminal Aerodrome Forecast
Issued by NWS

Home | Current Version | Previous Version | Text Only | Print | Product List | Glossary On
Versions: 1 2 3 4 5 6 7 8 9 10 11 12 13 14 15 16 17 18 19
305
FTUS42 KMLB 161123
TAFISM
TAF
KISM 161123Z 1612/1712 09004KT P6SM FEW050 BKN250
     FM161500 12008KT P6SM SCT050 SCT250
     FM170000 10004KT P6SM FEW050 SCT250
     FM170800 00000KT 2SM BR SCT002
      TEMPO 1709/1712 3/4SM BR BKN002=

USA.gov is the U.S. government's official web portal to all federal, state and local government web resources and services.